createdAt,value
2023-01-18T00:01:22.206Z,5.74
2023-01-18T00:03:49.956Z,5.68
2023-01-18T00:06:18.275Z,5.69
2023-01-18T00:08:45.957Z,5.70
2023-01-18T00:11:16.018Z,5.70
2023-01-18T00:13:44.253Z,5.71
2023-01-18T00:16:15.888Z,5.74
2023-01-18T00:18:44.356Z,5.71
2023-01-18T00:21:12.803Z,5.72
2023-01-18T00:23:40.394Z,5.72
2023-01-18T00:26:10.452Z,5.76
2023-01-18T00:28:40.426Z,5.72
2023-01-18T00:31:17.078Z,5.72
2023-01-18T00:33:50.260Z,5.72
2023-01-18T00:36:18.803Z,5.74
2023-01-18T00:38:52.026Z,5.72
2023-01-18T00:41:21.623Z,5.78
2023-01-18T00:43:49.710Z,5.76
2023-01-18T00:46:25.575Z,5.74
2023-01-18T00:48:54.579Z,5.74
2023-01-18T00:51:24.853Z,5.76
2023-01-18T00:53:52.552Z,5.79
2023-01-18T00:56:22.645Z,5.76
2023-01-18T00:58:50.659Z,5.81
2023-01-18T01:01:18.573Z,5.83
2023-01-18T01:04:05.060Z,5.86
2023-01-18T01:06:44.833Z,5.87
2023-01-18T01:09:26.628Z,5.89
2023-01-18T01:12:14.471Z,5.92
2023-01-18T01:15:04.159Z,5.91
2023-01-18T01:17:53.762Z,5.97
2023-01-18T01:20:41.395Z,5.93
2023-01-18T01:23:34.031Z,5.96
2023-01-18T01:26:08.637Z,5.99
2023-01-18T01:28:39.957Z,5.96
2023-01-18T01:31:11.582Z,5.94
2023-01-18T01:33:40.223Z,5.94
2023-01-18T01:36:17.132Z,5.90
2023-01-18T01:38:45.784Z,5.92
2023-01-18T01:41:31.691Z,5.98
2023-01-18T01:44:28.282Z,5.97
2023-01-18T01:47:05.156Z,5.96
2023-01-18T01:49:42.817Z,5.98
2023-01-18T01:52:15.919Z,5.94
2023-01-18T01:54:53.377Z,5.96
2023-01-18T01:57:24.781Z,5.98
2023-01-18T02:00:02.496Z,5.97
2023-01-18T02:02:41.432Z,5.94
2023-01-18T02:05:13.707Z,5.95
2023-01-18T02:07:41.437Z,5.96
2023-01-18T02:10:10.474Z,5.92
2023-01-18T02:12:40.955Z,6.01
2023-01-18T02:15:09.925Z,6.00
2023-01-18T02:17:50.248Z,5.98
2023-01-18T02:20:47.514Z,5.98
2023-01-18T02:23:34.056Z,5.97
2023-01-18T02:26:31.859Z,5.97
2023-01-18T02:29:06.001Z,5.92
2023-01-18T02:31:44.256Z,5.95
2023-01-18T02:34:33.917Z,5.95
2023-01-18T02:37:14.084Z,5.95
2023-01-18T02:39:47.865Z,5.95
2023-01-18T02:42:39.736Z,5.95
2023-01-18T02:45:49.579Z,5.92
2023-01-18T02:48:20.640Z,5.91
2023-01-18T02:50:48.430Z,5.90
2023-01-18T02:53:16.351Z,5.90
2023-01-18T02:55:56.389Z,5.91
2023-01-18T02:58:29.863Z,5.93
2023-01-18T03:01:06.209Z,5.96
2023-01-18T03:03:35.399Z,5.91
2023-01-18T03:06:06.831Z,5.85
2023-01-18T03:08:53.461Z,5.81
2023-01-18T03:11:24.291Z,5.84
2023-01-18T03:13:58.048Z,5.86
2023-01-18T03:16:59.773Z,5.86
2023-01-18T03:20:05.796Z,5.84
2023-01-18T03:22:56.913Z,5.88
2023-01-18T03:25:41.383Z,5.86
2023-01-18T03:28:42.287Z,5.83
2023-01-18T03:31:35.475Z,5.86
2023-01-18T03:34:14.384Z,5.85
2023-01-18T03:36:48.895Z,5.84
2023-01-18T03:39:28.503Z,5.87
2023-01-18T03:42:00.854Z,5.90
2023-01-18T03:45:00.022Z,5.92
2023-01-18T03:47:27.682Z,5.96
2023-01-18T03:49:55.602Z,5.94
2023-01-18T03:52:37.789Z,5.93
2023-01-18T03:55:12.875Z,5.94
2023-01-18T03:57:45.832Z,5.90
2023-01-18T04:00:14.965Z,5.94
2023-01-18T04:02:45.423Z,5.98
2023-01-18T04:05:13.580Z,5.97
2023-01-18T04:07:41.503Z,5.97
2023-01-18T04:10:10.380Z,6.01
2023-01-18T04:12:38.278Z,6.01
2023-01-18T04:15:06.428Z,6.01
2023-01-18T04:17:34.204Z,5.98
2023-01-18T04:20:02.119Z,5.99
2023-01-18T04:22:30.315Z,5.99
2023-01-18T04:24:57.856Z,6.07
2023-01-18T04:27:25.755Z,5.98
2023-01-18T04:29:53.444Z,5.96
2023-01-18T04:32:21.048Z,5.96
2023-01-18T04:34:48.566Z,5.91
2023-01-18T04:37:16.122Z,5.90
2023-01-18T04:39:43.570Z,5.94
2023-01-18T04:42:11.138Z,5.91
2023-01-18T04:44:38.920Z,5.90
2023-01-18T04:47:06.358Z,5.86
2023-01-18T04:49:34.094Z,5.90
2023-01-18T04:52:01.769Z,5.96
2023-01-18T04:54:30.544Z,5.94
2023-01-18T04:56:58.178Z,5.91
2023-01-18T04:59:25.852Z,5.91
2023-01-18T05:01:56.460Z,5.87
2023-01-18T05:04:24.072Z,5.86
2023-01-18T05:06:51.763Z,5.84
2023-01-18T05:09:20.121Z,5.84
2023-01-18T05:11:48.291Z,5.81
2023-01-18T05:14:15.941Z,5.79
2023-01-18T05:16:43.689Z,5.78
2023-01-18T05:19:11.294Z,5.76
2023-01-18T05:21:38.812Z,5.74
2023-01-18T05:24:06.798Z,5.77
2023-01-18T05:26:34.358Z,5.76
2023-01-18T05:29:01.863Z,5.73
2023-01-18T05:31:29.469Z,5.72
2023-01-18T05:33:57.690Z,5.70
2023-01-18T05:36:25.373Z,5.71
2023-01-18T05:38:52.944Z,5.73
2023-01-18T05:41:21.619Z,5.75
2023-01-18T05:43:49.689Z,5.71
2023-01-18T05:46:17.627Z,5.77
2023-01-18T05:48:45.470Z,5.78
2023-01-18T05:51:13.123Z,5.74
2023-01-18T05:53:41.299Z,5.74
2023-01-18T05:56:09.750Z,5.73
2023-01-18T05:58:38.418Z,5.73
2023-01-18T06:01:08.679Z,5.73
2023-01-18T06:03:37.180Z,5.74
2023-01-18T06:06:04.831Z,5.77
2023-01-18T06:08:33.128Z,5.76
2023-01-18T06:11:00.675Z,5.75
2023-01-18T06:13:31.130Z,5.83
2023-01-18T06:16:00.417Z,5.73
2023-01-18T06:18:29.435Z,5.75
2023-01-18T06:21:01.198Z,5.74
2023-01-18T06:23:30.173Z,5.85
2023-01-18T06:25:58.064Z,5.85
2023-01-18T06:28:30.777Z,5.88
2023-01-18T06:30:59.008Z,5.90
2023-01-18T06:33:26.548Z,5.91
2023-01-18T06:35:54.336Z,5.95
2023-01-18T06:38:21.914Z,5.98
2023-01-18T06:40:49.630Z,6.01
2023-01-18T06:43:17.073Z,5.98
2023-01-18T06:45:44.864Z,5.96
2023-01-18T06:48:12.626Z,5.94
2023-01-18T06:50:40.154Z,5.92
2023-01-18T06:53:07.709Z,5.92
2023-01-18T06:55:35.838Z,5.91
2023-01-18T06:58:03.394Z,5.90
2023-01-18T07:00:31.469Z,5.89
2023-01-18T07:02:59.738Z,5.93
2023-01-18T07:05:27.760Z,5.93
2023-01-18T07:07:55.368Z,5.91
2023-01-18T07:10:22.957Z,5.94
2023-01-18T07:12:51.006Z,5.94
2023-01-18T07:15:22.869Z,6.00
2023-01-18T07:17:50.956Z,6.03
2023-01-18T07:20:20.039Z,6.09
2023-01-18T07:22:52.743Z,6.15
2023-01-18T07:25:20.920Z,6.14
2023-01-18T07:27:49.195Z,6.20
2023-01-18T07:30:17.636Z,6.22
2023-01-18T07:32:51.891Z,6.27
2023-01-18T07:35:22.304Z,6.27
2023-01-18T07:37:52.330Z,6.33
2023-01-18T07:40:21.697Z,6.37
2023-01-18T07:42:56.274Z,6.36
2023-01-18T07:45:24.455Z,6.35
2023-01-18T07:47:53.486Z,6.36
2023-01-18T07:50:22.541Z,6.39
2023-01-18T07:52:50.122Z,6.44
2023-01-18T07:55:17.647Z,6.42
2023-01-18T07:57:45.242Z,6.42
2023-01-18T08:00:14.810Z,6.43
2023-01-18T08:02:42.779Z,6.48
2023-01-18T08:05:10.844Z,6.50
2023-01-18T08:07:39.522Z,6.53
2023-01-18T08:10:16.735Z,6.54
2023-01-18T08:13:10.328Z,6.57
2023-01-18T08:15:40.912Z,6.57
2023-01-18T08:18:09.099Z,6.60
2023-01-18T08:20:36.750Z,6.60
2023-01-18T08:26:26.244Z,6.63
2023-01-18T08:28:58.504Z,6.61
2023-01-18T08:31:26.413Z,6.64
2023-01-18T08:33:54.165Z,6.61
2023-01-18T08:36:24.204Z,6.63
2023-01-18T08:38:55.358Z,6.58
2023-01-18T08:41:33.467Z,6.52
2023-01-18T08:44:01.147Z,6.55
2023-01-18T08:46:29.173Z,6.57
2023-01-18T08:48:59.403Z,6.51
2023-01-18T08:51:27.932Z,6.47
2023-01-18T08:53:57.462Z,6.46
2023-01-18T08:56:25.801Z,6.45
2023-01-18T08:58:54.002Z,6.47
2023-01-18T09:01:23.849Z,6.54
2023-01-18T09:03:55.268Z,6.63
2023-01-18T09:06:23.439Z,6.63
2023-01-18T09:08:51.103Z,6.71
2023-01-18T09:11:18.897Z,6.67
2023-01-18T09:13:59.853Z,6.68
2023-01-18T09:16:29.732Z,6.65
2023-01-18T09:19:01.450Z,6.75
2023-01-18T09:21:29.392Z,6.72
2023-01-18T09:23:57.981Z,6.72
2023-01-18T09:26:25.788Z,6.80
2023-01-18T09:28:54.017Z,6.78
2023-01-18T09:31:25.359Z,6.79
2023-01-18T09:33:54.255Z,6.77
2023-01-18T09:36:26.763Z,6.80
2023-01-18T09:38:55.920Z,6.83
2023-01-18T09:41:33.248Z,6.85
2023-01-18T09:44:28.802Z,6.73
2023-01-18T09:47:19.908Z,6.58
2023-01-18T09:49:55.415Z,6.39
2023-01-18T09:52:32.042Z,6.30
2023-01-18T09:55:28.898Z,6.21
2023-01-18T09:58:19.245Z,6.21
2023-01-18T10:00:49.376Z,6.16
2023-01-18T10:03:29.291Z,6.22
2023-01-18T10:06:09.018Z,6.29
2023-01-18T10:09:04.835Z,6.30
2023-01-18T10:11:58.163Z,6.33
2023-01-18T10:14:53.382Z,6.33
2023-01-18T10:17:24.202Z,6.32
2023-01-18T10:19:52.061Z,6.36
2023-01-18T10:22:25.512Z,6.38
2023-01-18T10:25:32.775Z,6.39
2023-01-18T10:28:09.915Z,6.32
2023-01-18T10:30:49.175Z,6.32
2023-01-18T10:33:27.608Z,6.34
2023-01-18T10:36:11.665Z,6.34
2023-01-18T10:38:41.411Z,6.35
2023-01-18T10:41:18.897Z,6.39
2023-01-18T10:43:47.548Z,6.42
2023-01-18T10:46:18.927Z,6.45
2023-01-18T10:48:52.037Z,6.46
2023-01-18T10:51:35.362Z,6.47
2023-01-18T10:54:17.928Z,6.52
2023-01-18T10:56:45.561Z,6.52
2023-01-18T10:59:30.839Z,6.51
2023-01-18T11:01:58.744Z,6.45
2023-01-18T11:04:32.887Z,6.46
2023-01-18T11:07:03.569Z,6.45
2023-01-18T11:09:42.149Z,6.48
2023-01-18T11:12:41.497Z,6.51
2023-01-18T11:15:15.922Z,6.49
2023-01-18T11:18:00.503Z,6.50
2023-01-18T15:07:01.257Z,6.41
2023-01-18T15:09:32.784Z,6.39
2023-01-18T15:12:04.614Z,6.37
2023-01-18T15:14:37.287Z,6.36
2023-01-18T15:17:11.646Z,6.29
2023-01-18T15:19:44.371Z,6.29
2023-01-18T15:22:15.436Z,6.26
2023-01-18T15:24:45.468Z,6.27
2023-01-18T15:27:20.665Z,6.22
2023-01-18T15:29:55.222Z,6.23
2023-01-18T15:32:29.183Z,6.25
2023-01-18T15:34:58.487Z,6.19
2023-01-18T15:37:32.760Z,6.24
2023-01-18T15:40:12.655Z,6.25
2023-01-18T15:43:04.242Z,6.23
2023-01-18T15:45:39.552Z,6.19
2023-01-18T15:48:13.669Z,6.17
2023-01-18T15:50:46.874Z,6.14
2023-01-18T15:53:20.267Z,6.14
2023-01-18T15:55:50.044Z,6.09
2023-01-18T15:58:43.255Z,6.00
2023-01-18T16:01:13.837Z,6.05
2023-01-18T16:03:56.678Z,6.04
2023-01-18T16:06:24.789Z,5.98
2023-01-18T16:08:56.920Z,5.94
2023-01-18T16:11:57.075Z,5.94
2023-01-18T16:14:27.957Z,5.91
2023-01-18T16:17:07.313Z,5.92
2023-01-18T16:19:43.159Z,5.87
2023-01-18T16:22:24.512Z,5.88
2023-01-18T16:24:56.433Z,5.84
2023-01-18T16:27:29.508Z,5.79
2023-01-18T16:30:05.906Z,5.77
2023-01-18T16:32:36.029Z,5.78
2023-01-18T16:35:23.767Z,5.72
2023-01-18T16:37:52.148Z,5.72
2023-01-18T16:40:23.189Z,5.70
2023-01-18T16:43:20.145Z,5.72
2023-01-18T16:45:50.692Z,5.73
2023-01-18T16:48:23.860Z,5.74
2023-01-18T16:51:00.536Z,5.78
2023-01-18T16:53:29.179Z,5.71
2023-01-18T16:55:56.860Z,5.76
2023-01-18T16:58:24.622Z,5.69
2023-01-18T17:01:01.059Z,5.72
2023-01-18T17:03:29.190Z,5.68
2023-01-18T17:05:57.426Z,5.69
2023-01-18T17:08:25.004Z,5.68
2023-01-18T17:10:54.649Z,5.65
2023-01-18T17:13:22.383Z,5.69
2023-01-18T17:15:53.329Z,5.67
2023-01-18T17:18:25.638Z,5.72
2023-01-18T17:20:54.175Z,5.72
2023-01-18T17:23:25.742Z,5.72
2023-01-18T17:25:53.804Z,5.72
2023-01-18T17:28:21.491Z,5.66
2023-01-18T17:30:50.331Z,5.66
2023-01-18T17:33:23.926Z,5.68
2023-01-18T17:35:53.978Z,5.72
2023-01-18T17:38:24.599Z,5.73
2023-01-18T17:40:53.531Z,5.76
2023-01-18T17:43:33.298Z,5.75
2023-01-18T17:46:06.446Z,5.72
2023-01-18T17:48:35.009Z,5.77
2023-01-18T17:51:08.814Z,5.74
2023-01-18T17:53:41.038Z,5.74
2023-01-18T17:56:14.827Z,5.73
2023-01-18T17:58:46.308Z,5.74
2023-01-18T18:01:15.498Z,5.71
2023-01-18T18:03:47.106Z,5.71
2023-01-18T18:06:26.017Z,5.65
2023-01-18T18:08:58.038Z,5.67
2023-01-18T18:11:25.679Z,5.63
2023-01-18T18:13:53.450Z,5.64
2023-01-18T18:16:23.901Z,5.62
2023-01-18T18:18:51.527Z,5.64
2023-01-18T18:21:19.514Z,5.63
2023-01-18T18:23:47.112Z,5.57
2023-01-18T18:26:14.651Z,5.55
2023-01-18T18:28:42.159Z,5.51
2023-01-18T18:31:15.283Z,5.47
2023-01-18T18:33:43.564Z,5.42
2023-01-18T18:36:11.170Z,5.39
2023-01-18T18:38:38.763Z,5.34
2023-01-18T18:41:08.632Z,5.33
2023-01-18T18:43:36.225Z,5.31
2023-01-18T18:46:03.832Z,5.36
2023-01-18T18:48:31.440Z,5.35
2023-01-18T18:50:59.229Z,5.33
2023-01-18T18:53:37.659Z,5.33
2023-01-18T18:56:09.593Z,5.38
2023-01-18T18:58:39.021Z,5.38
2023-01-18T19:01:07.982Z,5.37
2023-01-18T19:03:36.061Z,5.36
2023-01-18T19:06:04.194Z,5.34
2023-01-18T19:08:31.775Z,5.38
2023-01-18T19:11:01.961Z,5.41
2023-01-18T19:13:29.728Z,5.39
2023-01-18T19:15:57.323Z,5.37
2023-01-18T19:18:24.944Z,5.35
2023-01-18T19:20:53.547Z,5.37
2023-01-18T19:23:21.680Z,5.40
2023-01-18T19:25:50.190Z,5.39
2023-01-18T19:28:18.479Z,5.52
2023-01-18T19:30:46.196Z,5.52
2023-01-18T19:33:14.476Z,5.57
2023-01-18T19:35:45.710Z,5.63
2023-01-18T19:38:13.735Z,5.70
2023-01-18T19:40:41.593Z,5.76
2023-01-18T19:43:09.361Z,5.80
2023-01-18T19:45:37.634Z,5.81
2023-01-18T19:48:05.687Z,5.83
2023-01-18T19:50:33.293Z,5.89
2023-01-18T19:53:01.106Z,5.89
2023-01-18T19:55:28.960Z,5.94
2023-01-18T19:57:57.113Z,5.91
2023-01-18T20:00:24.678Z,5.99
2023-01-18T20:02:53.332Z,6.00
2023-01-18T20:05:21.026Z,6.01
2023-01-18T20:07:48.611Z,6.03
2023-01-18T20:10:20.337Z,6.12
2023-01-18T20:12:49.423Z,6.11
2023-01-18T20:15:18.650Z,6.10
2023-01-18T20:17:47.115Z,6.10
2023-01-18T20:20:24.264Z,6.09
2023-01-18T20:22:59.141Z,6.05
2023-01-18T20:25:26.872Z,6.03
2023-01-18T20:27:54.523Z,6.01
2023-01-18T20:30:22.157Z,6.04
2023-01-18T20:32:50.007Z,6.07
2023-01-18T20:35:17.656Z,6.09
2023-01-18T20:37:45.226Z,6.14
2023-01-18T20:40:12.998Z,6.19
2023-01-18T20:42:40.975Z,6.22
2023-01-18T20:45:09.353Z,6.21
2023-01-18T20:47:36.991Z,6.28
2023-01-18T20:50:05.274Z,6.28
2023-01-18T20:52:32.904Z,6.33
2023-01-18T20:55:00.751Z,6.29
2023-01-18T20:57:35.009Z,6.30
2023-01-18T21:00:06.386Z,6.28
2023-01-18T21:02:34.248Z,6.27
2023-01-18T21:05:01.829Z,6.29
2023-01-18T21:07:33.195Z,6.31
2023-01-18T21:10:01.688Z,6.31
2023-01-18T21:12:29.645Z,6.35
2023-01-18T21:14:57.198Z,6.35
2023-01-18T21:17:24.963Z,6.35
2023-01-18T21:19:53.409Z,6.39
2023-01-18T21:22:21.090Z,6.43
2023-01-18T21:24:48.982Z,6.42
2023-01-18T21:27:17.152Z,6.39
2023-01-18T21:29:44.840Z,6.39
2023-01-18T21:32:12.504Z,6.37
2023-01-18T21:34:40.078Z,6.34
2023-01-18T21:37:07.654Z,6.34
2023-01-18T21:39:35.168Z,6.36
2023-01-18T21:42:21.567Z,6.37
2023-01-18T21:45:08.328Z,6.32
2023-01-18T21:47:36.061Z,6.37
2023-01-18T21:50:22.583Z,6.43
2023-01-18T21:53:22.334Z,6.42
2023-01-18T21:55:52.171Z,6.50
2023-01-18T21:58:38.034Z,6.55
2023-01-18T22:01:14.646Z,6.58
2023-01-18T22:03:43.151Z,6.63
2023-01-18T22:06:12.252Z,6.68
2023-01-18T22:08:41.843Z,6.71
2023-01-18T22:11:09.509Z,6.71
2023-01-18T22:13:37.247Z,6.76
2023-01-18T22:16:07.061Z,6.79
2023-01-18T22:18:34.874Z,6.77
2023-01-18T22:21:02.612Z,6.81
2023-01-18T22:23:30.295Z,6.81
2023-01-18T22:25:59.509Z,6.82
2023-01-18T22:28:28.249Z,6.83
2023-01-18T22:30:56.214Z,6.87
2023-01-18T22:33:24.825Z,6.82
2023-01-18T22:35:58.253Z,6.90
2023-01-18T22:38:26.653Z,6.91
2023-01-18T22:41:10.297Z,6.91
2023-01-18T22:43:39.366Z,6.93
2023-01-18T22:46:08.265Z,6.96
2023-01-18T22:48:37.696Z,6.95
2023-01-18T22:51:07.496Z,6.93
2023-01-18T22:53:35.017Z,6.90
2023-01-18T22:56:03.591Z,6.88
2023-01-18T22:58:32.276Z,6.85
2023-01-18T23:00:59.826Z,6.90
2023-01-18T23:03:27.830Z,6.87
2023-01-18T23:06:00.567Z,6.85
2023-01-18T23:08:38.464Z,6.89
2023-01-18T23:11:10.928Z,6.86
2023-01-18T23:13:40.127Z,6.84
2023-01-18T23:16:28.990Z,6.83
2023-01-18T23:18:56.805Z,6.84
2023-01-18T23:21:24.686Z,6.86
2023-01-18T23:23:52.257Z,6.88
2023-01-18T23:26:20.073Z,6.87
2023-01-18T23:28:47.665Z,6.84
2023-01-18T23:31:17.808Z,6.84
2023-01-18T23:33:47.939Z,6.83
2023-01-18T23:36:18.544Z,6.88
2023-01-18T23:39:04.943Z,6.87
2023-01-18T23:41:51.657Z,6.86
2023-01-18T23:44:37.805Z,6.89
2023-01-18T23:47:23.929Z,6.86
2023-01-18T23:50:10.108Z,6.81
2023-01-18T23:52:57.289Z,6.82
2023-01-18T23:55:24.943Z,6.79
2023-01-18T23:57:52.861Z,6.80
